Terminal Aerodrome Forecast
Issued by NWS Missoula, MT

Home | Current Version | Previous Version | Text Only | Print | Product List | Glossary On
Versions: 1 2 3 4 5 6 7 8 9 10 11 12 13 14
077
FTUS45 KMSO 281120
TAFBTM
TAF
KBTM 281120Z 2812/2912 17007KT P6SM SCT120
     FM282200 VRB10G20KT P6SM VCTS BKN100CB
     FM290200 VRB05KT P6SM SCT100=

USA.gov is the U.S. government's official web portal to all federal, state and local government web resources and services.